sensor_id;sensor_type;location;lat;lon;timestamp;temperature;humidity
3298;DHT22;1661;53.572;10.174;2024-02-28T00:01:37;6.20;76.10
3298;DHT22;1661;53.572;10.174;2024-02-28T00:04:04;6.20;75.80
3298;DHT22;1661;53.572;10.174;2024-02-28T00:06:30;6.20;76.20
3298;DHT22;1661;53.572;10.174;2024-02-28T00:09:00;6.20;75.70
3298;DHT22;1661;53.572;10.174;2024-02-28T00:11:28;6.10;75.30
3298;DHT22;1661;53.572;10.174;2024-02-28T00:13:58;6.10;76.00
3298;DHT22;1661;53.572;10.174;2024-02-28T00:16:25;6.10;75.80
3298;DHT22;1661;53.572;10.174;2024-02-28T00:18:52;6.10;76.00
3298;DHT22;1661;53.572;10.174;2024-02-28T00:21:19;6.20;76.20
3298;DHT22;1661;53.572;10.174;2024-02-28T00:23:46;6.20;76.30
3298;DHT22;1661;53.572;10.174;2024-02-28T00:26:12;6.20;76.20
3298;DHT22;1661;53.572;10.174;2024-02-28T00:28:41;6.20;76.10
3298;DHT22;1661;53.572;10.174;2024-02-28T00:31:10;6.20;75.60
3298;DHT22;1661;53.572;10.174;2024-02-28T00:33:36;6.10;75.60
3298;DHT22;1661;53.572;10.174;2024-02-28T00:36:04;6.10;75.80
3298;DHT22;1661;53.572;10.174;2024-02-28T00:38:31;6.10;76.20
3298;DHT22;1661;53.572;10.174;2024-02-28T00:41:00;6.20;76.50
3298;DHT22;1661;53.572;10.174;2024-02-28T00:43:27;6.20;76.40
3298;DHT22;1661;53.572;10.174;2024-02-28T00:45:55;6.10;75.90
3298;DHT22;1661;53.572;10.174;2024-02-28T00:48:23;6.00;75.80
3298;DHT22;1661;53.572;10.174;2024-02-28T00:50:50;6.00;76.10
3298;DHT22;1661;53.572;10.174;2024-02-28T00:53:18;6.00;76.00
3298;DHT22;1661;53.572;10.174;2024-02-28T00:55:45;6.00;76.30
3298;DHT22;1661;53.572;10.174;2024-02-28T00:58:12;5.90;76.20
3298;DHT22;1661;53.572;10.174;2024-02-28T01:00:38;6.00;76.60
3298;DHT22;1661;53.572;10.174;2024-02-28T01:03:07;6.00;76.40
3298;DHT22;1661;53.572;10.174;2024-02-28T01:05:34;6.00;76.20
3298;DHT22;1661;53.572;10.174;2024-02-28T01:08:05;6.00;76.60
3298;DHT22;1661;53.572;10.174;2024-02-28T01:10:32;5.90;76.30
3298;DHT22;1661;53.572;10.174;2024-02-28T01:12:58;5.90;76.20
3298;DHT22;1661;53.572;10.174;2024-02-28T01:15:25;5.80;76.50
3298;DHT22;1661;53.572;10.174;2024-02-28T01:17:52;5.90;76.30
3298;DHT22;1661;53.572;10.174;2024-02-28T01:20:20;5.90;76.50
3298;DHT22;1661;53.572;10.174;2024-02-28T01:22:47;5.90;76.50
3298;DHT22;1661;53.572;10.174;2024-02-28T01:25:14;5.80;76.20
3298;DHT22;1661;53.572;10.174;2024-02-28T01:27:41;5.80;76.70
3298;DHT22;1661;53.572;10.174;2024-02-28T01:30:09;5.80;76.60
3298;DHT22;1661;53.572;10.174;2024-02-28T01:32:35;5.80;76.80
3298;DHT22;1661;53.572;10.174;2024-02-28T01:35:05;5.80;76.60
3298;DHT22;1661;53.572;10.174;2024-02-28T01:37:35;5.80;76.20
3298;DHT22;1661;53.572;10.174;2024-02-28T01:40:03;5.70;76.20
3298;DHT22;1661;53.572;10.174;2024-02-28T01:42:30;5.70;76.90
3298;DHT22;1661;53.572;10.174;2024-02-28T01:44:57;5.70;76.90
3298;DHT22;1661;53.572;10.174;2024-02-28T01:47:24;5.60;76.90
3298;DHT22;1661;53.572;10.174;2024-02-28T01:49:51;5.60;77.10
3298;DHT22;1661;53.572;10.174;2024-02-28T01:52:20;5.60;76.90
3298;DHT22;1661;53.572;10.174;2024-02-28T01:54:51;5.50;76.80
3298;DHT22;1661;53.572;10.174;2024-02-28T01:57:18;5.60;77.10
3298;DHT22;1661;53.572;10.174;2024-02-28T01:59:45;5.60;76.80
3298;DHT22;1661;53.572;10.174;2024-02-28T02:02:13;5.60;76.70
3298;DHT22;1661;53.572;10.174;2024-02-28T02:04:42;5.50;76.50
3298;DHT22;1661;53.572;10.174;2024-02-28T02:07:09;5.50;76.50
3298;DHT22;1661;53.572;10.174;2024-02-28T02:09:36;5.50;76.70
3298;DHT22;1661;53.572;10.174;2024-02-28T02:12:04;5.50;77.00
3298;DHT22;1661;53.572;10.174;2024-02-28T02:14:31;5.50;77.00
3298;DHT22;1661;53.572;10.174;2024-02-28T02:17:01;5.50;77.00
3298;DHT22;1661;53.572;10.174;2024-02-28T02:19:27;5.40;77.00
3298;DHT22;1661;53.572;10.174;2024-02-28T02:21:57;5.40;77.00
3298;DHT22;1661;53.572;10.174;2024-02-28T02:24:25;5.40;77.70
3298;DHT22;1661;53.572;10.174;2024-02-28T02:26:55;5.40;77.60
3298;DHT22;1661;53.572;10.174;2024-02-28T02:29:24;5.30;77.60
3298;DHT22;1661;53.572;10.174;2024-02-28T02:31:53;5.30;77.20
3298;DHT22;1661;53.572;10.174;2024-02-28T02:34:22;5.30;77.80
3298;DHT22;1661;53.572;10.174;2024-02-28T02:36:49;5.40;77.90
3298;DHT22;1661;53.572;10.174;2024-02-28T02:39:16;5.40;78.00
3298;DHT22;1661;53.572;10.174;2024-02-28T02:41:44;5.40;77.80
3298;DHT22;1661;53.572;10.174;2024-02-28T02:44:11;5.40;77.80
3298;DHT22;1661;53.572;10.174;2024-02-28T02:46:38;5.40;77.80
3298;DHT22;1661;53.572;10.174;2024-02-28T02:49:05;5.40;78.00
3298;DHT22;1661;53.572;10.174;2024-02-28T02:51:32;5.50;77.90
3298;DHT22;1661;53.572;10.174;2024-02-28T02:54:02;5.40;77.50
3298;DHT22;1661;53.572;10.174;2024-02-28T02:56:28;5.40;77.60
3298;DHT22;1661;53.572;10.174;2024-02-28T02:58:59;5.40;77.90
3298;DHT22;1661;53.572;10.174;2024-02-28T03:01:26;5.50;77.80
3298;DHT22;1661;53.572;10.174;2024-02-28T03:03:52;5.40;77.60
3298;DHT22;1661;53.572;10.174;2024-02-28T03:06:19;5.50;77.90
3298;DHT22;1661;53.572;10.174;2024-02-28T03:08:46;5.50;77.90
3298;DHT22;1661;53.572;10.174;2024-02-28T03:11:19;5.50;77.40
3298;DHT22;1661;53.572;10.174;2024-02-28T03:13:48;5.40;77.80
3298;DHT22;1661;53.572;10.174;2024-02-28T03:16:16;5.40;77.50
3298;DHT22;1661;53.572;10.174;2024-02-28T03:18:45;5.40;77.80
3298;DHT22;1661;53.572;10.174;2024-02-28T03:21:12;5.30;77.60
3298;DHT22;1661;53.572;10.174;2024-02-28T03:23:42;5.30;77.70
3298;DHT22;1661;53.572;10.174;2024-02-28T03:26:08;5.30;78.20
3298;DHT22;1661;53.572;10.174;2024-02-28T03:28:35;5.30;78.50
3298;DHT22;1661;53.572;10.174;2024-02-28T03:31:02;5.30;78.30
3298;DHT22;1661;53.572;10.174;2024-02-28T03:33:33;5.30;78.30
3298;DHT22;1661;53.572;10.174;2024-02-28T03:36:00;5.40;78.30
3298;DHT22;1661;53.572;10.174;2024-02-28T03:38:27;5.20;78.00
3298;DHT22;1661;53.572;10.174;2024-02-28T03:40:54;5.20;78.30
3298;DHT22;1661;53.572;10.174;2024-02-28T03:43:21;5.20;78.20
3298;DHT22;1661;53.572;10.174;2024-02-28T03:45:47;5.20;78.60
3298;DHT22;1661;53.572;10.174;2024-02-28T03:48:15;5.10;78.30
3298;DHT22;1661;53.572;10.174;2024-02-28T03:50:46;5.20;78.60
3298;DHT22;1661;53.572;10.174;2024-02-28T03:53:13;5.30;78.60
3298;DHT22;1661;53.572;10.174;2024-02-28T03:55:42;5.30;78.30
3298;DHT22;1661;53.572;10.174;2024-02-28T03:58:10;5.30;77.50
3298;DHT22;1661;53.572;10.174;2024-02-28T04:00:42;5.30;77.70
3298;DHT22;1661;53.572;10.174;2024-02-28T04:03:10;5.30;77.60
3298;DHT22;1661;53.572;10.174;2024-02-28T04:05:36;5.40;77.60
3298;DHT22;1661;53.572;10.174;2024-02-28T04:08:05;5.40;77.10
3298;DHT22;1661;53.572;10.174;2024-02-28T04:10:34;5.40;77.30
3298;DHT22;1661;53.572;10.174;2024-02-28T04:13:01;5.40;77.10
3298;DHT22;1661;53.572;10.174;2024-02-28T04:15:29;5.40;77.00
3298;DHT22;1661;53.572;10.174;2024-02-28T04:17:56;5.40;77.20
3298;DHT22;1661;53.572;10.174;2024-02-28T04:20:26;5.40;76.80
3298;DHT22;1661;53.572;10.174;2024-02-28T04:22:53;5.40;77.10
3298;DHT22;1661;53.572;10.174;2024-02-28T04:25:21;5.40;77.20
3298;DHT22;1661;53.572;10.174;2024-02-28T04:27:50;5.40;77.10
3298;DHT22;1661;53.572;10.174;2024-02-28T04:30:17;5.40;77.40
3298;DHT22;1661;53.572;10.174;2024-02-28T04:32:47;5.50;77.50
3298;DHT22;1661;53.572;10.174;2024-02-28T04:35:14;5.50;77.40
3298;DHT22;1661;53.572;10.174;2024-02-28T04:37:44;5.50;76.90
3298;DHT22;1661;53.572;10.174;2024-02-28T04:40:11;5.40;76.70
3298;DHT22;1661;53.572;10.174;2024-02-28T04:42:39;5.40;77.20
3298;DHT22;1661;53.572;10.174;2024-02-28T04:45:14;5.50;77.40
3298;DHT22;1661;53.572;10.174;2024-02-28T04:47:41;5.50;77.80
3298;DHT22;1661;53.572;10.174;2024-02-28T04:50:09;5.50;77.80
3298;DHT22;1661;53.572;10.174;2024-02-28T04:52:36;5.50;77.60
3298;DHT22;1661;53.572;10.174;2024-02-28T04:55:03;5.50;77.30
3298;DHT22;1661;53.572;10.174;2024-02-28T04:57:29;5.50;77.00
3298;DHT22;1661;53.572;10.174;2024-02-28T04:59:58;5.40;76.90
3298;DHT22;1661;53.572;10.174;2024-02-28T05:02:24;5.40;77.00
3298;DHT22;1661;53.572;10.174;2024-02-28T05:04:51;5.40;77.10
3298;DHT22;1661;53.572;10.174;2024-02-28T05:07:23;5.40;76.80
3298;DHT22;1661;53.572;10.174;2024-02-28T05:09:50;5.40;76.90
3298;DHT22;1661;53.572;10.174;2024-02-28T05:12:19;5.40;77.00
3298;DHT22;1661;53.572;10.174;2024-02-28T05:14:46;5.40;77.30
3298;DHT22;1661;53.572;10.174;2024-02-28T05:17:17;5.40;77.40
3298;DHT22;1661;53.572;10.174;2024-02-28T05:19:43;5.40;77.60
3298;DHT22;1661;53.572;10.174;2024-02-28T05:22:10;5.40;77.70
3298;DHT22;1661;53.572;10.174;2024-02-28T05:24:37;5.40;77.70
3298;DHT22;1661;53.572;10.174;2024-02-28T05:27:04;5.30;77.70
3298;DHT22;1661;53.572;10.174;2024-02-28T05:29:34;5.30;78.00
3298;DHT22;1661;53.572;10.174;2024-02-28T05:32:01;5.30;78.00
3298;DHT22;1661;53.572;10.174;2024-02-28T05:34:32;5.30;78.30
3298;DHT22;1661;53.572;10.174;2024-02-28T05:36:59;5.20;78.30
3298;DHT22;1661;53.572;10.174;2024-02-28T05:39:26;5.20;78.50
3298;DHT22;1661;53.572;10.174;2024-02-28T05:41:54;5.20;78.60
3298;DHT22;1661;53.572;10.174;2024-02-28T05:44:21;5.20;78.80
3298;DHT22;1661;53.572;10.174;2024-02-28T05:46:48;5.20;78.90
3298;DHT22;1661;53.572;10.174;2024-02-28T05:49:15;5.20;78.90
3298;DHT22;1661;53.572;10.174;2024-02-28T05:51:46;5.20;78.80
3298;DHT22;1661;53.572;10.174;2024-02-28T05:54:13;5.20;79.00
3298;DHT22;1661;53.572;10.174;2024-02-28T05:56:39;5.20;79.00
3298;DHT22;1661;53.572;10.174;2024-02-28T05:59:06;5.20;79.10
3298;DHT22;1661;53.572;10.174;2024-02-28T06:01:33;5.20;79.10
3298;DHT22;1661;53.572;10.174;2024-02-28T06:04:00;5.20;79.20
3298;DHT22;1661;53.572;10.174;2024-02-28T06:06:27;5.20;79.30
3298;DHT22;1661;53.572;10.174;2024-02-28T06:08:55;5.10;79.60
3298;DHT22;1661;53.572;10.174;2024-02-28T06:11:22;5.10;79.80
3298;DHT22;1661;53.572;10.174;2024-02-28T06:13:50;5.10;79.90
3298;DHT22;1661;53.572;10.174;2024-02-28T06:16:17;5.10;79.90
3298;DHT22;1661;53.572;10.174;2024-02-28T06:18:47;5.00;80.00
3298;DHT22;1661;53.572;10.174;2024-02-28T06:21:14;5.00;80.30
3298;DHT22;1661;53.572;10.174;2024-02-28T06:23:41;4.90;80.40
3298;DHT22;1661;53.572;10.174;2024-02-28T06:26:09;4.90;80.50
3298;DHT22;1661;53.572;10.174;2024-02-28T06:28:42;4.80;80.90
3298;DHT22;1661;53.572;10.174;2024-02-28T06:31:13;4.90;81.10
3298;DHT22;1661;53.572;10.174;2024-02-28T06:33:43;4.90;81.10
3298;DHT22;1661;53.572;10.174;2024-02-28T06:36:09;4.90;81.10
3298;DHT22;1661;53.572;10.174;2024-02-28T06:38:36;4.90;81.00
3298;DHT22;1661;53.572;10.174;2024-02-28T06:41:04;4.90;81.20
3298;DHT22;1661;53.572;10.174;2024-02-28T06:43:33;4.90;81.40
3298;DHT22;1661;53.572;10.174;2024-02-28T06:45:59;5.00;81.40
3298;DHT22;1661;53.572;10.174;2024-02-28T06:48:27;5.00;81.20
3298;DHT22;1661;53.572;10.174;2024-02-28T06:50:56;5.00;80.80
3298;DHT22;1661;53.572;10.174;2024-02-28T06:53:24;4.90;80.80
3298;DHT22;1661;53.572;10.174;2024-02-28T06:55:51;4.90;81.10
3298;DHT22;1661;53.572;10.174;2024-02-28T06:58:18;4.90;81.10
3298;DHT22;1661;53.572;10.174;2024-02-28T07:00:47;4.90;81.00
3298;DHT22;1661;53.572;10.174;2024-02-28T07:03:14;5.00;81.10
3298;DHT22;1661;53.572;10.174;2024-02-28T07:05:41;5.00;81.10
3298;DHT22;1661;53.572;10.174;2024-02-28T07:08:08;5.00;81.00
3298;DHT22;1661;53.572;10.174;2024-02-28T07:10:36;5.10;80.90
3298;DHT22;1661;53.572;10.174;2024-02-28T07:13:04;5.10;80.60
3298;DHT22;1661;53.572;10.174;2024-02-28T07:15:31;5.10;80.80
3298;DHT22;1661;53.572;10.174;2024-02-28T07:17:59;5.10;80.60
3298;DHT22;1661;53.572;10.174;2024-02-28T07:20:26;5.00;80.80
3298;DHT22;1661;53.572;10.174;2024-02-28T07:22:53;5.00;80.90
3298;DHT22;1661;53.572;10.174;2024-02-28T07:25:20;5.00;81.10
3298;DHT22;1661;53.572;10.174;2024-02-28T07:27:47;5.00;81.00
3298;DHT22;1661;53.572;10.174;2024-02-28T07:30:14;5.00;81.10
3298;DHT22;1661;53.572;10.174;2024-02-28T07:32:41;5.00;81.10
3298;DHT22;1661;53.572;10.174;2024-02-28T07:35:11;5.00;81.20
3298;DHT22;1661;53.572;10.174;2024-02-28T07:37:38;5.00;81.00
3298;DHT22;1661;53.572;10.174;2024-02-28T07:40:06;5.10;81.40
3298;DHT22;1661;53.572;10.174;2024-02-28T07:42:34;5.10;81.20
3298;DHT22;1661;53.572;10.174;2024-02-28T07:45:01;5.00;81.20
3298;DHT22;1661;53.572;10.174;2024-02-28T07:47:28;4.90;81.70
3298;DHT22;1661;53.572;10.174;2024-02-28T07:49:55;4.90;81.80
3298;DHT22;1661;53.572;10.174;2024-02-28T07:52:23;5.00;81.80
3298;DHT22;1661;53.572;10.174;2024-02-28T07:54:52;5.10;81.70
3298;DHT22;1661;53.572;10.174;2024-02-28T07:57:19;5.10;81.40
3298;DHT22;1661;53.572;10.174;2024-02-28T07:59:46;5.00;81.30
3298;DHT22;1661;53.572;10.174;2024-02-28T08:02:13;5.10;81.70
3298;DHT22;1661;53.572;10.174;2024-02-28T08:04:42;5.20;81.70
3298;DHT22;1661;53.572;10.174;2024-02-28T08:07:11;5.30;81.60
3298;DHT22;1661;53.572;10.174;2024-02-28T08:09:42;5.40;81.10
3298;DHT22;1661;53.572;10.174;2024-02-28T08:12:09;5.40;80.90
3298;DHT22;1661;53.572;10.174;2024-02-28T08:14:36;5.40;80.90
3298;DHT22;1661;53.572;10.174;2024-02-28T08:17:03;5.40;80.90
3298;DHT22;1661;53.572;10.174;2024-02-28T08:19:30;5.50;80.90
3298;DHT22;1661;53.572;10.174;2024-02-28T08:21:56;5.50;80.60
3298;DHT22;1661;53.572;10.174;2024-02-28T08:24:23;5.60;80.50
3298;DHT22;1661;53.572;10.174;2024-02-28T08:26:51;5.60;80.20
3298;DHT22;1661;53.572;10.174;2024-02-28T08:29:18;5.60;80.10
3298;DHT22;1661;53.572;10.174;2024-02-28T08:31:45;5.70;80.10
3298;DHT22;1661;53.572;10.174;2024-02-28T08:34:12;5.80;80.10
3298;DHT22;1661;53.572;10.174;2024-02-28T08:36:39;5.80;80.10
3298;DHT22;1661;53.572;10.174;2024-02-28T08:39:08;5.90;79.90
3298;DHT22;1661;53.572;10.174;2024-02-28T08:41:38;5.90;79.80
3298;DHT22;1661;53.572;10.174;2024-02-28T08:44:06;6.00;79.80
3298;DHT22;1661;53.572;10.174;2024-02-28T08:46:33;6.00;79.50
3298;DHT22;1661;53.572;10.174;2024-02-28T08:48:59;6.00;79.50
3298;DHT22;1661;53.572;10.174;2024-02-28T08:51:26;6.10;79.30
3298;DHT22;1661;53.572;10.174;2024-02-28T08:53:53;6.30;79.30
3298;DHT22;1661;53.572;10.174;2024-02-28T08:56:21;6.30;78.80
3298;DHT22;1661;53.572;10.174;2024-02-28T08:58:47;6.30;78.80
3298;DHT22;1661;53.572;10.174;2024-02-28T09:01:18;6.40;78.80
3298;DHT22;1661;53.572;10.174;2024-02-28T09:03:45;6.60;79.10
3298;DHT22;1661;53.572;10.174;2024-02-28T09:06:11;6.80;78.50
3298;DHT22;1661;53.572;10.174;2024-02-28T09:08:38;7.10;78.20
3298;DHT22;1661;53.572;10.174;2024-02-28T09:11:05;7.30;77.30
3298;DHT22;1661;53.572;10.174;2024-02-28T09:13:32;7.50;76.50
3298;DHT22;1661;53.572;10.174;2024-02-28T09:16:01;7.80;75.80
3298;DHT22;1661;53.572;10.174;2024-02-28T09:18:32;7.90;75.00
3298;DHT22;1661;53.572;10.174;2024-02-28T09:20:59;8.10;74.30
3298;DHT22;1661;53.572;10.174;2024-02-28T09:23:25;8.10;73.40
3298;DHT22;1661;53.572;10.174;2024-02-28T09:25:52;8.20;73.50
3298;DHT22;1661;53.572;10.174;2024-02-28T09:28:20;8.30;73.40
3298;DHT22;1661;53.572;10.174;2024-02-28T09:30:46;8.50;73.10
3298;DHT22;1661;53.572;10.174;2024-02-28T09:33:15;8.60;72.40
3298;DHT22;1661;53.572;10.174;2024-02-28T09:35:46;8.60;71.60
3298;DHT22;1661;53.572;10.174;2024-02-28T09:38:16;8.70;71.90
3298;DHT22;1661;53.572;10.174;2024-02-28T09:40:46;8.70;71.60
3298;DHT22;1661;53.572;10.174;2024-02-28T09:43:18;8.80;71.80
3298;DHT22;1661;53.572;10.174;2024-02-28T09:45:46;8.80;72.00
3298;DHT22;1661;53.572;10.174;2024-02-28T09:48:16;8.80;71.90
3298;DHT22;1661;53.572;10.174;2024-02-28T09:50:47;8.90;72.20
3298;DHT22;1661;53.572;10.174;2024-02-28T09:53:14;8.90;72.30
3298;DHT22;1661;53.572;10.174;2024-02-28T09:55:41;8.90;72.00
3298;DHT22;1661;53.572;10.174;2024-02-28T09:58:11;8.90;71.90
3298;DHT22;1661;53.572;10.174;2024-02-28T10:00:45;9.00;71.50
3298;DHT22;1661;53.572;10.174;2024-02-28T10:03:13;9.00;71.60
3298;DHT22;1661;53.572;10.174;2024-02-28T10:05:41;9.10;71.60
3298;DHT22;1661;53.572;10.174;2024-02-28T10:08:09;9.10;71.30
3298;DHT22;1661;53.572;10.174;2024-02-28T10:10:36;9.10;71.20
3298;DHT22;1661;53.572;10.174;2024-02-28T10:13:07;9.20;71.80
3298;DHT22;1661;53.572;10.174;2024-02-28T10:15:33;9.40;70.90
3298;DHT22;1661;53.572;10.174;2024-02-28T10:18:00;9.60;71.00
3298;DHT22;1661;53.572;10.174;2024-02-28T10:20:27;9.80;70.00
3298;DHT22;1661;53.572;10.174;2024-02-28T10:22:56;10.00;69.30
3298;DHT22;1661;53.572;10.174;2024-02-28T10:25:24;10.10;69.30
3298;DHT22;1661;53.572;10.174;2024-02-28T10:27:58;10.20;68.10
3298;DHT22;1661;53.572;10.174;2024-02-28T10:30:25;10.10;68.40
3298;DHT22;1661;53.572;10.174;2024-02-28T10:32:52;10.20;68.80
3298;DHT22;1661;53.572;10.174;2024-02-28T10:35:19;10.40;69.00
3298;DHT22;1661;53.572;10.174;2024-02-28T10:37:51;10.50;68.10
3298;DHT22;1661;53.572;10.174;2024-02-28T10:40:20;10.80;67.70
3298;DHT22;1661;53.572;10.174;2024-02-28T10:42:49;10.90;66.50
3298;DHT22;1661;53.572;10.174;2024-02-28T10:45:17;10.90;66.30
3298;DHT22;1661;53.572;10.174;2024-02-28T10:47:45;11.00;66.00
3298;DHT22;1661;53.572;10.174;2024-02-28T10:50:13;11.00;65.90
3298;DHT22;1661;53.572;10.174;2024-02-28T10:52:44;11.10;65.80
3298;DHT22;1661;53.572;10.174;2024-02-28T10:55:20;11.00;65.30
3298;DHT22;1661;53.572;10.174;2024-02-28T10:57:54;11.00;66.00
3298;DHT22;1661;53.572;10.174;2024-02-28T11:00:24;11.10;65.90
3298;DHT22;1661;53.572;10.174;2024-02-28T11:02:51;11.30;65.90
3298;DHT22;1661;53.572;10.174;2024-02-28T11:05:18;11.50;65.70
3298;DHT22;1661;53.572;10.174;2024-02-28T11:07:45;11.70;65.40
3298;DHT22;1661;53.572;10.174;2024-02-28T11:10:12;11.60;64.20
3298;DHT22;1661;53.572;10.174;2024-02-28T11:12:56;11.60;64.30
3298;DHT22;1661;53.572;10.174;2024-02-28T11:15:25;11.60;64.70
3298;DHT22;1661;53.572;10.174;2024-02-28T11:17:53;11.50;64.60
3298;DHT22;1661;53.572;10.174;2024-02-28T11:20:20;11.40;64.20
3298;DHT22;1661;53.572;10.174;2024-02-28T11:22:48;11.30;65.00
3298;DHT22;1661;53.572;10.174;2024-02-28T11:25:15;11.30;65.70
3298;DHT22;1661;53.572;10.174;2024-02-28T11:27:46;11.10;65.50
3298;DHT22;1661;53.572;10.174;2024-02-28T11:30:18;11.20;66.40
3298;DHT22;1661;53.572;10.174;2024-02-28T11:32:44;11.20;66.50
3298;DHT22;1661;53.572;10.174;2024-02-28T11:35:11;11.10;66.50
3298;DHT22;1661;53.572;10.174;2024-02-28T11:37:38;11.10;66.30
3298;DHT22;1661;53.572;10.174;2024-02-28T11:40:07;11.10;66.30
3298;DHT22;1661;53.572;10.174;2024-02-28T11:42:35;11.10;66.20
3298;DHT22;1661;53.572;10.174;2024-02-28T11:45:02;11.00;66.60
3298;DHT22;1661;53.572;10.174;2024-02-28T11:47:32;10.90;67.00
3298;DHT22;1661;53.572;10.174;2024-02-28T11:49:59;10.90;67.20
3298;DHT22;1661;53.572;10.174;2024-02-28T11:52:27;11.00;67.10
3298;DHT22;1661;53.572;10.174;2024-02-28T11:54:56;11.00;67.00
3298;DHT22;1661;53.572;10.174;2024-02-28T11:57:31;11.00;67.00
3298;DHT22;1661;53.572;10.174;2024-02-28T12:00:06;10.90;67.50
3298;DHT22;1661;53.572;10.174;2024-02-28T12:02:35;10.80;67.90
3298;DHT22;1661;53.572;10.174;2024-02-28T12:05:02;10.80;67.90
3298;DHT22;1661;53.572;10.174;2024-02-28T12:07:30;10.80;67.90
3298;DHT22;1661;53.572;10.174;2024-02-28T12:09:57;10.80;67.70
3298;DHT22;1661;53.572;10.174;2024-02-28T12:12:27;10.80;67.90
3298;DHT22;1661;53.572;10.174;2024-02-28T12:14:58;10.70;68.10
3298;DHT22;1661;53.572;10.174;2024-02-28T12:17:25;10.70;68.40
3298;DHT22;1661;53.572;10.174;2024-02-28T12:19:53;10.80;68.60
3298;DHT22;1661;53.572;10.174;2024-02-28T12:22:22;10.80;67.90
3298;DHT22;1661;53.572;10.174;2024-02-28T12:24:49;10.80;67.60
3298;DHT22;1661;53.572;10.174;2024-02-28T12:27:15;10.90;67.90
3298;DHT22;1661;53.572;10.174;2024-02-28T12:29:43;10.90;68.10
3298;DHT22;1661;53.572;10.174;2024-02-28T12:32:09;10.90;68.00
3298;DHT22;1661;53.572;10.174;2024-02-28T12:34:37;10.90;67.90
3298;DHT22;1661;53.572;10.174;2024-02-28T12:37:07;10.90;68.10
3298;DHT22;1661;53.572;10.174;2024-02-28T12:39:34;11.00;67.30
3298;DHT22;1661;53.572;10.174;2024-02-28T12:42:01;10.90;67.70
3298;DHT22;1661;53.572;10.174;2024-02-28T12:44:28;11.00;68.20
3298;DHT22;1661;53.572;10.174;2024-02-28T12:46:57;11.00;68.60
3298;DHT22;1661;53.572;10.174;2024-02-28T12:49:23;10.90;67.90
3298;DHT22;1661;53.572;10.174;2024-02-28T12:51:53;10.90;68.00
3298;DHT22;1661;53.572;10.174;2024-02-28T12:54:21;10.70;68.40
3298;DHT22;1661;53.572;10.174;2024-02-28T12:56:48;10.70;69.00
3298;DHT22;1661;53.572;10.174;2024-02-28T12:59:15;10.70;69.20
3298;DHT22;1661;53.572;10.174;2024-02-28T13:01:42;10.80;69.00
3298;DHT22;1661;53.572;10.174;2024-02-28T13:04:09;10.70;69.00
3298;DHT22;1661;53.572;10.174;2024-02-28T13:06:36;10.70;68.80
3298;DHT22;1661;53.572;10.174;2024-02-28T13:09:05;10.70;68.90
3298;DHT22;1661;53.572;10.174;2024-02-28T13:11:42;10.70;68.80
3298;DHT22;1661;53.572;10.174;2024-02-28T13:14:09;10.70;69.30
3298;DHT22;1661;53.572;10.174;2024-02-28T13:16:36;10.80;69.10
3298;DHT22;1661;53.572;10.174;2024-02-28T13:19:03;10.80;69.20
3298;DHT22;1661;53.572;10.174;2024-02-28T13:21:31;10.90;68.70
3298;DHT22;1661;53.572;10.174;2024-02-28T13:23:58;10.80;68.90
3298;DHT22;1661;53.572;10.174;2024-02-28T13:26:25;10.80;69.10
3298;DHT22;1661;53.572;10.174;2024-02-28T13:28:55;10.70;69.10
3298;DHT22;1661;53.572;10.174;2024-02-28T13:31:22;10.70;69.50
3298;DHT22;1661;53.572;10.174;2024-02-28T13:33:49;10.70;69.60
3298;DHT22;1661;53.572;10.174;2024-02-28T13:36:16;10.70;69.20
3298;DHT22;1661;53.572;10.174;2024-02-28T13:38:42;10.70;69.60
3298;DHT22;1661;53.572;10.174;2024-02-28T13:41:10;10.70;69.60
3298;DHT22;1661;53.572;10.174;2024-02-28T13:43:36;10.70;69.90
3298;DHT22;1661;53.572;10.174;2024-02-28T13:46:05;10.70;70.20
3298;DHT22;1661;53.572;10.174;2024-02-28T13:48:31;10.70;70.00
3298;DHT22;1661;53.572;10.174;2024-02-28T13:50:59;10.70;69.80
3298;DHT22;1661;53.572;10.174;2024-02-28T13:53:27;10.60;69.90
3298;DHT22;1661;53.572;10.174;2024-02-28T13:55:54;10.60;70.30
3298;DHT22;1661;53.572;10.174;2024-02-28T13:58:21;10.60;70.40
3298;DHT22;1661;53.572;10.174;2024-02-28T14:00:47;10.60;70.30
3298;DHT22;1661;53.572;10.174;2024-02-28T14:03:16;10.60;70.60
3298;DHT22;1661;53.572;10.174;2024-02-28T14:05:42;10.70;70.50
3298;DHT22;1661;53.572;10.174;2024-02-28T14:08:15;10.70;70.70
3298;DHT22;1661;53.572;10.174;2024-02-28T14:10:42;10.80;70.30
3298;DHT22;1661;53.572;10.174;2024-02-28T14:13:11;10.80;70.10
3298;DHT22;1661;53.572;10.174;2024-02-28T14:15:38;10.80;70.10
3298;DHT22;1661;53.572;10.174;2024-02-28T14:18:05;10.80;70.10
3298;DHT22;1661;53.572;10.174;2024-02-28T14:20:33;10.70;70.30
3298;DHT22;1661;53.572;10.174;2024-02-28T14:23:03;10.60;71.10
3298;DHT22;1661;53.572;10.174;2024-02-28T14:25:30;10.60;71.10
3298;DHT22;1661;53.572;10.174;2024-02-28T14:27:57;10.50;71.00
3298;DHT22;1661;53.572;10.174;2024-02-28T14:30:24;10.50;71.50
3298;DHT22;1661;53.572;10.174;2024-02-28T14:32:51;10.50;71.30
3298;DHT22;1661;53.572;10.174;2024-02-28T14:35:21;10.60;71.50
3298;DHT22;1661;53.572;10.174;2024-02-28T14:37:51;10.60;71.30
3298;DHT22;1661;53.572;10.174;2024-02-28T14:40:20;10.60;71.30
3298;DHT22;1661;53.572;10.174;2024-02-28T14:42:49;10.60;71.30
3298;DHT22;1661;53.572;10.174;2024-02-28T14:45:16;10.50;71.80
3298;DHT22;1661;53.572;10.174;2024-02-28T14:47:43;10.50;72.10
3298;DHT22;1661;53.572;10.174;2024-02-28T14:50:11;10.50;72.00
3298;DHT22;1661;53.572;10.174;2024-02-28T14:52:41;10.50;72.20
3298;DHT22;1661;53.572;10.174;2024-02-28T14:55:11;10.50;72.30
3298;DHT22;1661;53.572;10.174;2024-02-28T14:57:38;10.50;72.70
3298;DHT22;1661;53.572;10.174;2024-02-28T15:00:07;10.50;72.80
3298;DHT22;1661;53.572;10.174;2024-02-28T15:02:34;10.50;72.60
3298;DHT22;1661;53.572;10.174;2024-02-28T15:05:02;10.50;72.60
3298;DHT22;1661;53.572;10.174;2024-02-28T15:07:31;10.50;72.70
3298;DHT22;1661;53.572;10.174;2024-02-28T15:09:58;10.60;72.80
3298;DHT22;1661;53.572;10.174;2024-02-28T15:12:28;10.60;72.60
3298;DHT22;1661;53.572;10.174;2024-02-28T15:14:58;10.50;72.30
3298;DHT22;1661;53.572;10.174;2024-02-28T15:17:25;10.50;72.20
3298;DHT22;1661;53.572;10.174;2024-02-28T15:19:52;10.40;72.10
3298;DHT22;1661;53.572;10.174;2024-02-28T15:22:25;10.30;72.30
3298;DHT22;1661;53.572;10.174;2024-02-28T15:24:52;10.20;73.10
3298;DHT22;1661;53.572;10.174;2024-02-28T15:27:19;10.10;73.30
3298;DHT22;1661;53.572;10.174;2024-02-28T15:29:49;10.10;73.60
3298;DHT22;1661;53.572;10.174;2024-02-28T15:32:16;10.10;74.10
3298;DHT22;1661;53.572;10.174;2024-02-28T15:34:46;10.00;74.30
3298;DHT22;1661;53.572;10.174;2024-02-28T15:37:12;10.00;74.70
3298;DHT22;1661;53.572;10.174;2024-02-28T15:39:39;10.00;74.80
3298;DHT22;1661;53.572;10.174;2024-02-28T15:42:07;10.00;74.90
3298;DHT22;1661;53.572;10.174;2024-02-28T15:44:34;10.00;75.20
3298;DHT22;1661;53.572;10.174;2024-02-28T15:47:10;10.10;75.20
3298;DHT22;1661;53.572;10.174;2024-02-28T15:49:36;10.10;75.00
3298;DHT22;1661;53.572;10.174;2024-02-28T15:52:04;10.10;75.10
3298;DHT22;1661;53.572;10.174;2024-02-28T15:54:31;10.10;75.00
3298;DHT22;1661;53.572;10.174;2024-02-28T15:56:58;10.00;74.70
3298;DHT22;1661;53.572;10.174;2024-02-28T15:59:26;9.90;74.90
3298;DHT22;1661;53.572;10.174;2024-02-28T16:01:52;9.90;75.20